NCAR-RAP Real-Time Weather Data

Output produced by METARs form (06 May 2021  16:03 UTC)
found at http://weather.rap.ucar.edu/surface/
 
KABI 061552Z 12006KT 10SM CLR 23/09 A3028 RMK AO2 SLP237 T02280089
KABI 061452Z 10010KT 10SM CLR 21/09 A3029 RMK AO2 SLP239 T02060089 50009
KABI 061352Z 12008KT 10SM CLR 17/09 A3029 RMK AO2 SLP241 T01720089
KABI 061252Z 02003KT 10SM CLR 14/08 A3029 RMK AO2 SLP241 T01390083
KABI 061152Z 00000KT 10SM CLR 13/07 A3026 RMK AO2 SLP230 T01280072 10167 20128 51025
KABI 061052Z 00000KT 10SM CLR 13/07 A3024 RMK AO2 SLP223 T01330072
KABI 060952Z 08007KT 10SM CLR 14/07 A3021 RMK AO2 SLP212 T01390072
KABI 060852Z 10006KT 10SM CLR 15/07 A3018 RMK AO2 SLP202 T01500067 52023
KABI 060752Z 09008KT 10SM CLR 16/07 A3015 RMK AO2 SLP192 T01560072
KABI 060652Z 10SM CLR 16/08 A3014 RMK AO2 SLP189 T01560078
KABI 060552Z 13011KT 10SM CLR 17/07 A3011 RMK AO2 SLP178 T01670072 10244 20167 402610089 52001
KABI 060452Z 13009KT 10SM CLR 17/09 A3011 RMK AO2 SLP178 T01670089
KABI 060352Z 13008KT 10SM CLR 17/09 A3011 RMK AO2 SLP181 T01720094
KABI 060252Z 10007KT 10SM CLR 18/09 A3011 RMK AO2 SLP180 T01830094 53014
KABI 060152Z 10007KT 10SM CLR 20/11 A3008 RMK AO2 SLP171 T02000106